Time;durP1;ratioP1;P1;durP2;ratioP2;P2;SDS_P1;SDS_P2;PMS_P1;PMS_P2;Temp;Humidity;BMP_temperature;BMP_pressure;BME280_temperature;BME280_humidity;BME280_pressure;Samples;Min_cycle;Max_cycle;Signal;HPM_P1;HPM_P2
2021/04/25 00:00:54;;;;;;;4.55;2.15;;;7.00;63.10;;;;;;2067625;28;20408;-85
2021/04/25 00:01:54;;;;;;;4.30;2.15;;;6.90;63.10;;;;;;2063075;28;20030;-85
2021/04/25 00:02:55;;;;;;;4.72;2.40;;;6.90;63.10;;;;;;2072296;28;20042;-86
2021/04/25 00:03:56;;;;;;;5.10;2.25;;;6.90;63.10;;;;;;2074209;28;20048;-86
2021/04/25 00:04:56;;;;;;;4.30;2.10;;;6.90;63.10;;;;;;2085353;28;20017;-87
2021/04/25 00:05:57;;;;;;;5.28;2.35;;;7.00;64.00;;;;;;2080451;28;20128;-86
2021/04/25 00:06:58;;;;;;;4.75;2.08;;;6.90;63.20;;;;;;2072934;28;20028;-86
2021/04/25 00:07:58;;;;;;;4.18;2.10;;;7.00;63.30;;;;;;2065623;28;20027;-86
2021/04/25 00:08:59;;;;;;;5.15;2.05;;;7.00;63.30;;;;;;2065865;28;20030;-86
2021/04/25 00:10:00;;;;;;;5.13;2.42;;;7.00;63.30;;;;;;2074428;28;20025;-85
2021/04/25 00:11:01;;;;;;;4.30;2.10;;;7.00;63.30;;;;;;2077321;28;20036;-86
2021/04/25 00:12:02;;;;;;;5.80;2.45;;;7.00;63.30;;;;;;2076271;28;20037;-86
2021/04/25 00:13:03;;;;;;;5.45;2.55;;;7.00;63.30;;;;;;2073900;28;20431;-86
2021/04/25 00:14:04;;;;;;;4.45;2.22;;;7.10;63.30;;;;;;2076863;28;20562;-86
2021/04/25 00:15:05;;;;;;;4.05;2.25;;;7.10;63.30;;;;;;2083442;28;20546;-86
2021/04/25 00:16:06;;;;;;;3.72;1.90;;;7.10;63.30;;;;;;2070100;28;20128;-84
2021/04/25 00:17:07;;;;;;;4.40;1.90;;;7.10;63.30;;;;;;2079160;28;20029;-85
2021/04/25 00:18:07;;;;;;;4.95;2.13;;;7.10;63.20;;;;;;2061589;28;20038;-85
2021/04/25 00:19:08;;;;;;;4.65;2.40;;;7.10;63.20;;;;;;2065599;28;20022;-85
2021/04/25 00:20:11;;;;;;;4.50;2.50;;;7.10;63.10;;;;;;2070167;28;20363;-85
2021/04/25 00:21:11;;;;;;;4.10;1.98;;;7.20;63.20;;;;;;2066177;28;20025;-85
2021/04/25 00:22:12;;;;;;;4.45;2.10;;;7.20;63.30;;;;;;2073463;28;20061;-85
2021/04/25 00:23:13;;;;;;;5.03;2.30;;;7.10;63.20;;;;;;2064880;28;20027;-85
2021/04/25 00:24:13;;;;;;;5.38;2.17;;;7.20;63.30;;;;;;2072180;28;20037;-85
2021/04/25 00:25:15;;;;;;;4.20;1.95;;;7.20;63.30;;;;;;2070344;28;20031;-85
2021/04/25 00:26:16;;;;;;;4.88;2.28;;;7.20;63.40;;;;;;2077249;28;20034;-85
2021/04/25 00:27:17;;;;;;;4.25;2.13;;;7.20;63.40;;;;;;2072644;28;20460;-85
2021/04/25 00:28:18;;;;;;;3.47;1.77;;;7.20;63.40;;;;;;2081489;28;20029;-85
2021/04/25 00:29:18;;;;;;;4.30;1.92;;;7.20;63.30;;;;;;2073859;28;20026;-85
2021/04/25 00:30:21;;;;;;;4.28;2.00;;;7.20;63.40;;;;;;2084070;28;20099;-85
2021/04/25 00:31:22;;;;;;;5.28;2.45;;;7.20;63.40;;;;;;2096088;28;20490;-85
2021/04/25 00:32:23;;;;;;;5.15;2.22;;;7.20;63.40;;;;;;2090350;28;20075;-85
2021/04/25 00:33:23;;;;;;;3.30;2.00;;;7.20;63.40;;;;;;2071136;28;20026;-85
2021/04/25 00:34:24;;;;;;;5.13;2.35;;;7.20;63.40;;;;;;2059095;28;20023;-84
2021/04/25 00:35:25;;;;;;;4.38;2.22;;;7.20;63.40;;;;;;2082931;28;20018;-84
2021/04/25 00:36:25;;;;;;;4.35;2.35;;;7.30;63.50;;;;;;2100405;28;20125;-83
2021/04/25 00:37:26;;;;;;;4.15;2.17;;;7.30;63.50;;;;;;2088388;28;20104;-84
2021/04/25 00:38:27;;;;;;;5.57;2.33;;;7.20;63.40;;;;;;2085800;28;20077;-84
2021/04/25 00:39:27;;;;;;;4.32;2.30;;;7.30;63.50;;;;;;2094149;28;20021;-82
2021/04/25 00:40:28;;;;;;;5.20;2.35;;;7.20;63.50;;;;;;2083960;28;20029;-84
2021/04/25 00:41:29;;;;;;;5.28;2.30;;;7.20;63.50;;;;;;2073575;28;20108;-85
2021/04/25 00:42:29;;;;;;;3.45;1.80;;;7.30;63.60;;;;;;2074876;28;20022;-85
2021/04/25 00:43:30;;;;;;;4.28;2.28;;;7.20;63.60;;;;;;2072446;28;20036;-85
2021/04/25 00:44:31;;;;;;;4.53;2.22;;;7.30;63.70;;;;;;2067373;28;20089;-86
2021/04/25 00:45:32;;;;;;;4.57;2.15;;;7.20;63.60;;;;;;2071288;28;20015;-85
2021/04/25 00:46:32;;;;;;;4.68;2.35;;;7.20;63.70;;;;;;2092482;28;20037;-84
2021/04/25 00:47:34;;;;;;;4.35;2.25;;;7.20;63.70;;;;;;2104828;28;20100;-85
2021/04/25 00:48:34;;;;;;;3.97;1.95;;;7.20;63.70;;;;;;2100390;28;20032;-84
2021/04/25 00:49:35;;;;;;;6.50;2.40;;;7.20;63.80;;;;;;2096366;28;20020;-85
2021/04/25 00:50:35;;;;;;;5.93;2.13;;;7.20;63.90;;;;;;2074462;28;20029;-85
2021/04/25 00:51:36;;;;;;;5.72;2.35;;;7.10;63.90;;;;;;2065101;28;20037;-85
2021/04/25 00:52:40;;;;;;;5.88;2.20;;;7.10;64.10;;;;;;2063270;28;20030;-85
2021/04/25 00:53:43;;;;;;;6.35;2.60;;;7.00;64.70;;;;;;2083729;28;20095;-85
2021/04/25 00:54:43;;;;;;;3.97;2.03;;;7.00;64.20;;;;;;2093065;28;20029;-86
2021/04/25 00:55:46;;;;;;;4.28;2.20;;;7.00;64.30;;;;;;2088476;28;20087;-85
2021/04/25 00:56:47;;;;;;;5.03;2.55;;;7.00;64.40;;;;;;2087049;28;20028;-85
2021/04/25 00:57:48;;;;;;;6.25;2.30;;;7.00;64.40;;;;;;2085597;28;20023;-85
2021/04/25 00:58:50;;;;;;;4.45;2.13;;;6.90;64.40;;;;;;2076475;28;20065;-85
2021/04/25 00:59:53;;;;;;;4.90;2.03;;;6.90;64.50;;;;;;2089081;28;20035;-85
2021/04/25 01:00:54;;;;;;;5.22;2.30;;;6.90;64.60;;;;;;2092952;28;20028;-84
2021/04/25 01:01:55;;;;;;;4.20;2.10;;;6.90;64.60;;;;;;2097630;28;20486;-86
2021/04/25 01:02:55;;;;;;;5.20;2.20;;;6.80;64.60;;;;;;2077322;28;20029;-86
2021/04/25 01:03:56;;;;;;;5.00;2.50;;;6.80;65.30;;;;;;2074915;28;20092;-87
2021/04/25 01:04:57;;;;;;;5.10;2.10;;;6.80;64.80;;;;;;2066818;28;20045;-86
2021/04/25 01:05:58;;;;;;;5.18;2.20;;;6.80;64.90;;;;;;2061757;28;20038;-86
2021/04/25 01:06:58;;;;;;;5.45;2.28;;;6.70;64.90;;;;;;2076248;28;20031;-85
2021/04/25 01:07:59;;;;;;;6.05;2.20;;;6.70;64.90;;;;;;2080598;28;20013;-86
2021/04/25 01:08:59;;;;;;;4.22;2.17;;;6.70;65.00;;;;;;2095334;28;20016;-85
2021/04/25 01:10:00;;;;;;;4.35;2.30;;;6.70;65.00;;;;;;2087973;28;20013;-86
2021/04/25 01:11:02;;;;;;;4.75;2.05;;;6.70;65.10;;;;;;2092318;28;20033;-86
2021/04/25 01:12:02;;;;;;;3.75;1.90;;;6.70;65.20;;;;;;2083700;28;20034;-86
2021/04/25 01:13:03;;;;;;;3.90;1.95;;;6.60;65.20;;;;;;2069781;28;20818;-86
2021/04/25 01:14:04;;;;;;;4.18;2.08;;;6.60;65.20;;;;;;2073724;28;20030;-86
2021/04/25 01:15:07;;;;;;;4.40;2.20;;;6.60;65.30;;;;;;2081312;28;20022;-86
2021/04/25 01:16:08;;;;;;;4.60;2.30;;;6.60;65.40;;;;;;2085484;28;20025;-86
2021/04/25 01:17:08;;;;;;;4.85;2.10;;;6.60;65.40;;;;;;2087018;28;20175;-86
2021/04/25 01:18:09;;;;;;;4.95;2.20;;;6.60;65.40;;;;;;2089480;28;20519;-86
2021/04/25 01:19:09;;;;;;;4.68;2.45;;;6.50;65.40;;;;;;2089752;28;20479;-86
2021/04/25 01:20:13;;;;;;;3.97;1.92;;;6.50;65.40;;;;;;2081197;28;20061;-86
2021/04/25 01:21:14;;;;;;;4.75;2.22;;;6.50;65.40;;;;;;2087464;28;20043;-86
2021/04/25 01:22:14;;;;;;;4.57;2.35;;;6.50;65.40;;;;;;2077891;28;20017;-85
2021/04/25 01:23:15;;;;;;;4.35;2.10;;;6.50;65.50;;;;;;2075625;28;20385;-85
2021/04/25 01:24:16;;;;;;;4.10;2.15;;;6.50;65.50;;;;;;2069775;28;20026;-86
2021/04/25 01:25:19;;;;;;;4.78;2.50;;;6.50;65.50;;;;;;2072332;28;20361;-86
2021/04/25 01:26:20;;;;;;;4.55;2.05;;;6.40;65.40;;;;;;2073429;28;20072;-86
2021/04/25 01:27:21;;;;;;;4.65;2.03;;;6.40;65.40;;;;;;2069874;28;20030;-85
2021/04/25 01:28:22;;;;;;;4.35;2.05;;;6.40;65.50;;;;;;2072585;28;20030;-85
2021/04/25 01:29:23;;;;;;;3.80;1.80;;;6.40;65.50;;;;;;2081539;28;20029;-85
2021/04/25 01:30:27;;;;;;;3.88;1.80;;;6.40;65.60;;;;;;2089025;28;20025;-85
2021/04/25 01:31:28;;;;;;;6.18;2.35;;;6.40;65.50;;;;;;2083327;28;20462;-85
2021/04/25 01:32:29;;;;;;;4.28;2.00;;;6.30;65.50;;;;;;2081378;28;20025;-84
2021/04/25 01:33:33;;;;;;;3.97;1.80;;;6.30;65.60;;;;;;2089311;28;20074;-86
2021/04/25 01:34:34;;;;;;;3.78;1.77;;;6.30;65.60;;;;;;2094342;28;20017;-84
2021/04/25 01:35:34;;;;;;;5.28;2.10;;;6.30;65.60;;;;;;2090511;28;20036;-85
2021/04/25 01:36:35;;;;;;;4.00;1.95;;;6.30;65.70;;;;;;2080804;28;20462;-85
2021/04/25 01:37:36;;;;;;;5.47;1.85;;;6.30;65.60;;;;;;2083740;28;20037;-86
2021/04/25 01:38:37;;;;;;;6.28;2.00;;;6.30;65.70;;;;;;2084346;28;20391;-86
2021/04/25 01:39:37;;;;;;;4.18;1.83;;;6.20;65.60;;;;;;2077879;28;20389;-86
2021/04/25 01:40:38;;;;;;;3.85;1.55;;;6.20;65.60;;;;;;2080272;28;20129;-86
2021/04/25 01:41:39;;;;;;;4.32;1.83;;;6.20;65.60;;;;;;2081075;28;20032;-86
2021/04/25 01:42:40;;;;;;;4.68;1.80;;;6.20;65.60;;;;;;2068821;28;20061;-85
2021/04/25 01:43:40;;;;;;;4.50;2.00;;;6.20;65.60;;;;;;2060856;28;20023;-85
2021/04/25 01:44:41;;;;;;;3.97;1.83;;;6.20;65.60;;;;;;2065532;28;20526;-85
2021/04/25 01:45:43;;;;;;;4.68;1.80;;;6.20;65.60;;;;;;2081219;28;20124;-85
2021/04/25 01:46:44;;;;;;;4.00;1.90;;;6.10;65.60;;;;;;2076892;28;20025;-86
2021/04/25 01:47:56;;;;;;;3.72;1.77;;;6.10;65.60;;;;;;2085176;28;20424;-86
2021/04/25 01:48:57;;;;;;;4.63;2.13;;;6.20;65.60;;;;;;2084554;28;20024;-86
2021/04/25 01:49:58;;;;;;;3.45;1.60;;;6.10;65.60;;;;;;2069453;28;20092;-86
2021/04/25 01:50:59;;;;;;;4.35;1.80;;;6.10;65.60;;;;;;2074879;28;20045;-86
2021/04/25 01:51:59;;;;;;;2.85;1.40;;;6.10;65.60;;;;;;2079423;28;20038;-86
2021/04/25 01:53:00;;;;;;;4.80;1.95;;;6.00;65.60;;;;;;2086121;28;20407;-86
2021/04/25 01:54:01;;;;;;;3.42;1.42;;;6.00;65.60;;;;;;2092031;28;20510;-86
2021/04/25 01:55:02;;;;;;;5.13;1.85;;;6.00;66.20;;;;;;2085944;28;20041;-85
2021/04/25 01:56:03;;;;;;;3.10;1.45;;;6.00;65.60;;;;;;2069884;28;20389;-86
2021/04/25 01:57:05;;;;;;;3.83;1.40;;;6.00;65.60;;;;;;2072345;28;20165;-86
2021/04/25 01:58:07;;;;;;;2.65;1.50;;;6.00;65.60;;;;;;2073343;28;20040;-86
2021/04/25 01:59:08;;;;;;;5.70;1.52;;;6.00;65.60;;;;;;2073788;28;20057;-85
2021/04/25 02:00:12;;;;;;;5.38;1.50;;;5.90;65.60;;;;;;2074581;28;20037;-86
2021/04/25 02:01:12;;;;;;;2.60;1.40;;;5.90;65.60;;;;;;2086003;28;20036;-86
2021/04/25 02:02:13;;;;;;;3.85;1.48;;;5.90;65.60;;;;;;2085593;28;20036;-86
2021/04/25 02:03:16;;;;;;;3.92;1.48;;;5.90;65.50;;;;;;2084794;28;20073;-86
2021/04/25 02:04:16;;;;;;;3.97;1.60;;;6.00;65.60;;;;;;2079300;28;20030;-86
2021/04/25 02:05:17;;;;;;;2.50;1.30;;;5.90;65.50;;;;;;2075805;28;20030;-85
2021/04/25 02:06:18;;;;;;;5.00;1.50;;;5.90;65.50;;;;;;2079979;28;20030;-85
2021/04/25 02:07:18;;;;;;;4.28;1.70;;;5.90;65.80;;;;;;2073552;28;20062;-86
2021/04/25 02:08:19;;;;;;;3.45;1.45;;;5.90;65.50;;;;;;2074018;28;20042;-86
2021/04/25 02:09:20;;;;;;;3.65;1.60;;;5.90;65.50;;;;;;2074041;28;20511;-86
2021/04/25 02:10:22;;;;;;;3.47;1.33;;;5.90;65.50;;;;;;2071033;28;20084;-86
2021/04/25 02:11:23;;;;;;;4.38;1.65;;;5.90;65.50;;;;;;2079666;28;20033;-86
2021/04/25 02:12:24;;;;;;;3.40;1.45;;;5.90;65.50;;;;;;2073069;28;20026;-86
2021/04/25 02:13:25;;;;;;;3.47;1.35;;;5.90;65.50;;;;;;2069633;28;20419;-85
2021/04/25 02:14:26;;;;;;;3.83;1.50;;;5.90;65.50;;;;;;2079754;28;20026;-86
2021/04/25 02:15:27;;;;;;;4.13;1.92;;;5.90;65.50;;;;;;2078906;28;20377;-86
2021/04/25 02:16:28;;;;;;;3.50;1.50;;;5.80;65.40;;;;;;2071866;28;20045;-86
2021/04/25 02:17:28;;;;;;;3.30;1.30;;;5.80;65.40;;;;;;2072932;28;20828;-85
2021/04/25 02:18:29;;;;;;;3.60;1.58;;;5.80;65.50;;;;;;2066315;28;20037;-85
2021/04/25 02:19:30;;;;;;;3.30;1.60;;;5.80;65.50;;;;;;2075886;28;20059;-85
2021/04/25 02:20:31;;;;;;;3.33;1.38;;;5.80;65.40;;;;;;2087475;28;20044;-85
2021/04/25 02:21:32;;;;;;;3.00;1.38;;;5.80;65.40;;;;;;2071859;28;20075;-85
2021/04/25 02:22:33;;;;;;;4.10;1.42;;;5.80;65.40;;;;;;2061260;28;20556;-85
2021/04/25 02:23:33;;;;;;;4.05;1.75;;;5.80;65.40;;;;;;2072646;28;20512;-85
2021/04/25 02:24:34;;;;;;;4.32;1.58;;;5.80;65.40;;;;;;2070008;28;20030;-85
2021/04/25 02:25:34;;;;;;;3.80;1.45;;;5.80;65.40;;;;;;2065532;28;20437;-84
2021/04/25 02:26:35;;;;;;;4.28;1.40;;;5.80;65.40;;;;;;2061729;28;20038;-85
2021/04/25 02:27:36;;;;;;;3.47;1.30;;;5.80;65.40;;;;;;2074512;28;20037;-85
2021/04/25 02:28:36;;;;;;;3.55;1.40;;;5.80;65.40;;;;;;2073625;28;20096;-84
2021/04/25 02:29:37;;;;;;;5.75;1.67;;;5.80;65.40;;;;;;2076198;28;20045;-85
2021/04/25 02:30:38;;;;;;;3.90;1.60;;;5.80;65.50;;;;;;2068173;28;20473;-85
2021/04/25 02:31:39;;;;;;;4.18;1.55;;;5.80;65.40;;;;;;2076951;28;20030;-86
2021/04/25 02:32:40;;;;;;;3.83;1.65;;;5.80;65.40;;;;;;2079780;28;20064;-86
2021/04/25 02:33:41;;;;;;;3.42;1.48;;;5.80;65.40;;;;;;2068704;28;20041;-85
2021/04/25 02:34:42;;;;;;;3.25;1.48;;;5.80;65.40;;;;;;2077153;28;20060;-85
2021/04/25 02:35:43;;;;;;;4.10;1.40;;;5.80;65.40;;;;;;2082139;28;20025;-85
2021/04/25 02:36:43;;;;;;;2.67;1.30;;;5.80;65.40;;;;;;2081060;28;20033;-85
2021/04/25 02:37:45;;;;;;;3.47;1.40;;;5.80;65.30;;;;;;2070993;28;20395;-85
2021/04/25 02:38:45;;;;;;;2.70;1.23;;;5.80;65.30;;;;;;2079577;28;20102;-86
2021/04/25 02:39:46;;;;;;;3.15;1.20;;;5.80;65.30;;;;;;2074527;28;20488;-85
2021/04/25 02:40:47;;;;;;;2.75;1.20;;;5.70;65.30;;;;;;2068001;28;20034;-86
2021/04/25 02:41:47;;;;;;;2.92;1.58;;;5.70;65.30;;;;;;2065216;28;20034;-86
2021/04/25 02:42:49;;;;;;;3.97;1.48;;;5.80;65.40;;;;;;2067715;28;20022;-86
2021/04/25 02:43:50;;;;;;;3.15;1.40;;;5.80;65.30;;;;;;2061614;28;20513;-86
2021/04/25 02:44:50;;;;;;;2.95;1.33;;;5.80;65.30;;;;;;2059417;28;20026;-86
2021/04/25 02:45:51;;;;;;;3.90;1.17;;;5.80;65.30;;;;;;2071379;28;20034;-86
2021/04/25 02:46:51;;;;;;;2.55;1.48;;;5.80;65.30;;;;;;2080542;28;20057;-85
2021/04/25 02:47:55;;;;;;;3.92;1.40;;;5.80;65.20;;;;;;2084640;28;20024;-86
2021/04/25 02:48:57;;;;;;;3.58;1.50;;;5.80;65.80;;;;;;2083222;28;20026;-86
2021/04/25 02:49:57;;;;;;;4.25;1.50;;;5.80;65.10;;;;;;2079580;28;20123;-86
2021/04/25 02:50:58;;;;;;;3.97;1.65;;;5.80;65.10;;;;;;2087688;28;20013;-85
2021/04/25 02:51:59;;;;;;;3.83;1.45;;;5.80;65.10;;;;;;2083383;28;20040;-85
2021/04/25 02:52:59;;;;;;;3.15;1.15;;;5.80;65.00;;;;;;2074483;28;20055;-85
2021/04/25 02:54:00;;;;;;;3.05;1.40;;;5.80;65.00;;;;;;2077300;28;20522;-86
2021/04/25 02:55:01;;;;;;;2.95;1.33;;;5.80;65.00;;;;;;2071768;28;20025;-86
2021/04/25 02:56:02;;;;;;;2.78;1.20;;;5.90;65.00;;;;;;2056358;28;20420;-86
2021/04/25 02:57:03;;;;;;;3.90;1.30;;;5.80;65.00;;;;;;2074616;28;20041;-86
2021/04/25 02:58:05;;;;;;;3.95;1.77;;;5.90;64.90;;;;;;2067569;28;20504;-86
2021/04/25 02:59:05;;;;;;;3.92;1.58;;;5.80;64.80;;;;;;2064188;28;20049;-86
2021/04/25 03:00:10;;;;;;;4.15;1.55;;;5.90;64.70;;;;;;2071859;28;20041;-86
2021/04/25 03:01:10;;;;;;;3.42;1.42;;;5.90;64.70;;;;;;2078395;28;20480;-86
2021/04/25 03:02:11;;;;;;;3.40;1.48;;;5.90;64.70;;;;;;2091164;28;20071;-86
2021/04/25 03:03:12;;;;;;;3.05;1.20;;;5.90;64.70;;;;;;2076301;28;20033;-85
2021/04/25 03:04:12;;;;;;;2.67;1.38;;;5.90;64.70;;;;;;2063776;28;20485;-86
2021/04/25 03:05:14;;;;;;;2.80;1.40;;;5.90;64.70;;;;;;2076539;28;20038;-85
2021/04/25 03:06:15;;;;;;;3.83;1.40;;;5.90;64.70;;;;;;2078140;28;20456;-85
2021/04/25 03:07:17;;;;;;;3.80;1.45;;;5.90;64.70;;;;;;2079792;28;20021;-85
2021/04/25 03:08:18;;;;;;;3.22;1.38;;;5.90;64.70;;;;;;2083826;28;20537;-85
2021/04/25 03:09:18;;;;;;;3.20;1.38;;;5.90;64.60;;;;;;2081626;28;20029;-85
2021/04/25 03:10:20;;;;;;;3.63;1.35;;;5.90;64.60;;;;;;2071275;28;20168;-86
2021/04/25 03:11:21;;;;;;;2.78;1.45;;;5.90;64.60;;;;;;2076520;28;20021;-86
2021/04/25 03:12:22;;;;;;;3.03;1.35;;;5.90;64.60;;;;;;2086056;28;20083;-86
2021/04/25 03:13:22;;;;;;;3.20;1.23;;;5.90;64.60;;;;;;2076152;28;20407;-86
2021/04/25 03:14:23;;;;;;;3.15;1.30;;;5.90;64.60;;;;;;2080236;28;20041;-86
2021/04/25 03:15:24;;;;;;;3.90;1.38;;;5.90;64.50;;;;;;2080293;28;20551;-86
2021/04/25 03:16:24;;;;;;;3.03;1.40;;;5.90;64.50;;;;;;2063468;28;20510;-86
2021/04/25 03:17:25;;;;;;;2.72;1.17;;;5.90;64.50;;;;;;2056417;28;20417;-85
2021/04/25 03:18:26;;;;;;;4.13;1.52;;;5.90;64.40;;;;;;2072215;28;20491;-86
2021/04/25 03:19:26;;;;;;;3.47;1.27;;;5.90;64.40;;;;;;2080333;28;20467;-85
2021/04/25 03:20:27;;;;;;;3.00;1.30;;;5.90;64.40;;;;;;2080192;28;20546;-86
2021/04/25 03:21:28;;;;;;;3.33;1.40;;;5.90;64.30;;;;;;2063609;28;20023;-85
2021/04/25 03:22:28;;;;;;;4.13;1.40;;;5.90;64.30;;;;;;2064166;28;20116;-86
2021/04/25 03:23:29;;;;;;;3.80;1.50;;;6.00;64.30;;;;;;2064086;28;20026;-86
2021/04/25 03:24:30;;;;;;;2.88;1.23;;;6.00;64.30;;;;;;2072245;28;20022;-85
2021/04/25 03:25:31;;;;;;;3.67;1.40;;;5.90;64.20;;;;;;2069129;28;20479;-86
2021/04/25 03:26:32;;;;;;;9.68;1.73;;;6.00;64.30;;;;;;2069804;28;20034;-86
2021/04/25 03:27:33;;;;;;;3.85;1.20;;;6.00;64.30;;;;;;2074239;28;20482;-85
2021/04/25 03:28:34;;;;;;;3.00;1.30;;;6.00;64.20;;;;;;2077802;28;20033;-85
2021/04/25 03:29:35;;;;;;;2.38;1.10;;;6.00;64.20;;;;;;2062515;28;20037;-86
2021/04/25 03:30:35;;;;;;;3.72;1.40;;;6.00;64.10;;;;;;2069451;28;20033;-85
2021/04/25 03:31:36;;;;;;;3.22;1.20;;;6.00;64.10;;;;;;2083123;28;20475;-85
2021/04/25 03:32:37;;;;;;;4.05;1.40;;;6.00;64.10;;;;;;2076875;28;20029;-85
2021/04/25 03:33:38;;;;;;;3.45;1.27;;;6.00;64.10;;;;;;2078591;28;20113;-85
2021/04/25 03:34:39;;;;;;;2.38;1.05;;;6.00;64.10;;;;;;2081938;28;20055;-86
2021/04/25 03:35:39;;;;;;;4.28;1.35;;;6.00;64.00;;;;;;2084021;28;20103;-86
2021/04/25 03:36:40;;;;;;;2.45;1.23;;;6.00;64.00;;;;;;2079335;28;20393;-85
2021/04/25 03:37:41;;;;;;;2.65;1.17;;;6.00;63.90;;;;;;2064328;28;20030;-85
2021/04/25 03:38:42;;;;;;;3.85;1.10;;;6.00;63.90;;;;;;2070140;28;20036;-86
2021/04/25 03:39:43;;;;;;;4.40;1.45;;;6.00;63.90;;;;;;2064324;28;20038;-86
2021/04/25 03:40:43;;;;;;;3.90;1.23;;;6.10;63.90;;;;;;2079754;28;20189;-86
2021/04/25 03:41:44;;;;;;;2.83;1.20;;;6.00;63.80;;;;;;2071399;28;20022;-86
2021/04/25 03:42:45;;;;;;;3.13;1.27;;;6.00;63.80;;;;;;2077590;28;20021;-86
2021/04/25 03:43:46;;;;;;;4.20;1.50;;;6.00;63.80;;;;;;2091253;28;20037;-86
2021/04/25 03:44:47;;;;;;;2.53;1.10;;;6.00;63.70;;;;;;2082431;28;20037;-86
2021/04/25 03:45:48;;;;;;;3.75;1.20;;;6.00;63.70;;;;;;2083855;28;20025;-86
2021/04/25 03:46:49;;;;;;;5.28;1.10;;;6.00;63.60;;;;;;2085551;28;20040;-87
2021/04/25 03:47:51;;;;;;;3.28;1.10;;;6.10;63.70;;;;;;2085036;28;20052;-87
2021/04/25 03:48:52;;;;;;;3.15;1.20;;;6.10;63.70;;;;;;2070510;28;20192;-86
2021/04/25 03:49:53;;;;;;;3.40;1.38;;;6.10;63.60;;;;;;2074091;28;20120;-85
2021/04/25 03:50:54;;;;;;;3.50;1.17;;;6.10;63.60;;;;;;2077213;28;20496;-86
2021/04/25 03:51:55;;;;;;;3.30;1.33;;;6.10;63.60;;;;;;2069299;28;20039;-85
2021/04/25 03:52:56;;;;;;;3.03;1.30;;;6.10;63.60;;;;;;2071759;28;20118;-85
2021/04/25 03:53:57;;;;;;;2.65;1.10;;;6.10;63.60;;;;;;2063471;28;20078;-86
2021/04/25 03:54:58;;;;;;;3.08;1.10;;;6.10;63.50;;;;;;2070785;28;20061;-85
2021/04/25 03:55:58;;;;;;;3.95;1.55;;;6.20;63.50;;;;;;2090894;28;20033;-85
2021/04/25 03:57:00;;;;;;;3.13;1.10;;;6.20;63.50;;;;;;2082483;28;20407;-85
2021/04/25 03:58:01;;;;;;;3.85;1.20;;;6.20;63.50;;;;;;2085688;28;20029;-85
2021/04/25 03:59:01;;;;;;;3.72;1.30;;;6.20;63.40;;;;;;2084104;28;20054;-85
2021/04/25 04:00:05;;;;;;;2.72;1.20;;;6.20;63.40;;;;;;2067828;28;20034;-86
2021/04/25 04:01:06;;;;;;;2.60;1.23;;;6.20;63.40;;;;;;2066946;28;20030;-87
2021/04/25 04:02:07;;;;;;;2.70;1.10;;;6.20;63.30;;;;;;2073252;28;20037;-86
2021/04/25 04:03:07;;;;;;;2.75;1.30;;;6.20;64.00;;;;;;2072133;28;20029;-86
2021/04/25 04:04:08;;;;;;;4.55;1.38;;;6.20;63.40;;;;;;2071255;28;20075;-86
2021/04/25 04:05:09;;;;;;;3.45;1.25;;;6.20;63.30;;;;;;2069923;28;20068;-85
2021/04/25 04:06:10;;;;;;;3.63;1.25;;;6.20;63.30;;;;;;2083771;28;20081;-85
2021/04/25 04:07:11;;;;;;;3.25;1.40;;;6.20;63.30;;;;;;2085203;28;20481;-85
2021/04/25 04:08:11;;;;;;;1.80;1.00;;;6.20;63.30;;;;;;2087914;28;20100;-85
2021/04/25 04:09:13;;;;;;;2.97;1.10;;;6.20;63.30;;;;;;2075808;28;20033;-85
2021/04/25 04:10:14;;;;;;;2.47;1.15;;;6.20;63.30;;;;;;2078262;28;20026;-85
2021/04/25 04:11:15;;;;;;;4.07;1.33;;;6.20;63.30;;;;;;2071593;28;20030;-85
2021/04/25 04:12:15;;;;;;;3.47;1.27;;;6.20;63.30;;;;;;2076274;28;20034;-85
2021/04/25 04:13:16;;;;;;;3.35;1.40;;;6.20;63.30;;;;;;2068275;28;20026;-85
2021/04/25 04:14:17;;;;;;;2.40;1.00;;;6.20;63.20;;;;;;2065743;28;20066;-85
2021/04/25 04:15:17;;;;;;;2.60;1.00;;;6.20;63.20;;;;;;2071727;28;20037;-85
2021/04/25 04:16:18;;;;;;;3.40;1.27;;;6.30;63.20;;;;;;2063600;28;20035;-85
2021/04/25 04:17:19;;;;;;;2.33;1.05;;;6.30;63.20;;;;;;2071875;28;20907;-84
2021/04/25 04:18:19;;;;;;;4.82;1.38;;;6.30;63.20;;;;;;2080399;28;20476;-85
2021/04/25 04:19:20;;;;;;;2.95;1.27;;;6.30;63.20;;;;;;2080308;28;20049;-84
2021/04/25 04:20:21;;;;;;;2.55;1.05;;;6.20;63.10;;;;;;2063462;28;20070;-85
2021/04/25 04:21:21;;;;;;;2.28;1.10;;;6.30;63.20;;;;;;2075581;28;20018;-83
2021/04/25 04:22:22;;;;;;;2.15;1.00;;;6.30;63.20;;;;;;2084650;28;20033;-84
2021/04/25 04:23:23;;;;;;;3.47;1.13;;;6.30;63.20;;;;;;2072061;28;20018;-85
2021/04/25 04:24:24;;;;;;;3.63;1.30;;;6.30;63.20;;;;;;2076336;28;20053;-84
2021/04/25 04:25:24;;;;;;;3.80;1.13;;;6.30;63.80;;;;;;2078781;28;20348;-85
2021/04/25 04:26:25;;;;;;;4.15;1.30;;;6.30;63.10;;;;;;2078716;28;20048;-85
2021/04/25 04:27:26;;;;;;;3.85;1.10;;;6.30;63.10;;;;;;2072351;28;20029;-86
2021/04/25 04:28:26;;;;;;;2.47;1.15;;;6.40;63.10;;;;;;2066745;28;20484;-86
2021/04/25 04:29:29;;;;;;;3.15;1.20;;;6.30;63.10;;;;;;2052577;28;20027;-84
2021/04/25 04:30:30;;;;;;;3.38;1.20;;;6.30;63.10;;;;;;2055586;28;20038;-84
2021/04/25 04:31:30;;;;;;;2.17;0.90;;;6.30;63.10;;;;;;2065876;28;20053;-84
2021/04/25 04:32:31;;;;;;;2.47;1.15;;;6.30;63.10;;;;;;2079722;28;20388;-84
2021/04/25 04:33:32;;;;;;;2.67;1.02;;;6.30;63.10;;;;;;2079482;28;20084;-84
2021/04/25 04:34:32;;;;;;;2.72;0.90;;;6.30;63.10;;;;;;2079197;28;20536;-84
2021/04/25 04:35:33;;;;;;;2.28;1.02;;;6.30;63.00;;;;;;2077716;28;20044;-84
2021/04/25 04:36:34;;;;;;;2.50;1.00;;;6.30;63.10;;;;;;2087238;28;20371;-84
2021/04/25 04:37:34;;;;;;;2.20;1.05;;;6.30;63.00;;;;;;2080810;28;20095;-84
2021/04/25 04:38:35;;;;;;;4.07;1.23;;;6.30;63.10;;;;;;2073431;28;20463;-84
2021/04/25 04:39:36;;;;;;;2.20;0.95;;;6.30;63.00;;;;;;2077046;28;20037;-85
2021/04/25 04:40:36;;;;;;;3.10;1.00;;;6.30;63.00;;;;;;2083731;28;20520;-84
2021/04/25 04:41:37;;;;;;;2.92;1.10;;;6.20;63.00;;;;;;2068558;28;20385;-85
2021/04/25 04:42:38;;;;;;;2.17;1.10;;;6.30;63.10;;;;;;2065081;28;20497;-84
2021/04/25 04:43:38;;;;;;;2.85;1.00;;;6.20;63.00;;;;;;2065619;28;20042;-84
2021/04/25 04:44:39;;;;;;;3.17;1.05;;;6.20;63.00;;;;;;2064821;28;20038;-84
2021/04/25 04:45:40;;;;;;;3.17;1.02;;;6.30;63.10;;;;;;2081433;28;20082;-84
2021/04/25 04:46:40;;;;;;;3.10;1.17;;;6.30;63.00;;;;;;2094958;28;20044;-84
2021/04/25 04:47:43;;;;;;;3.60;1.20;;;6.30;63.10;;;;;;2077796;28;20030;-84
2021/04/25 04:48:43;;;;;;;2.88;1.20;;;6.30;63.00;;;;;;2080926;28;20025;-85
2021/04/25 04:49:44;;;;;;;2.35;1.00;;;6.30;62.90;;;;;;2076191;28;20021;-84
2021/04/25 04:50:45;;;;;;;3.33;1.10;;;6.30;62.90;;;;;;2070999;28;20030;-85
2021/04/25 04:51:45;;;;;;;4.10;1.10;;;6.30;62.90;;;;;;2067547;28;20030;-85
2021/04/25 04:52:47;;;;;;;3.97;1.30;;;6.20;62.80;;;;;;2081257;28;20033;-84
2021/04/25 04:53:47;;;;;;;5.20;1.40;;;6.20;62.70;;;;;;2089891;28;20026;-84
2021/04/25 04:54:48;;;;;;;3.70;1.10;;;6.20;62.70;;;;;;2089917;28;20033;-85
2021/04/25 04:55:49;;;;;;;2.90;1.05;;;6.20;62.80;;;;;;2091760;28;20385;-83
2021/04/25 04:56:50;;;;;;;3.47;0.90;;;6.20;62.80;;;;;;2091652;28;20009;-84
2021/04/25 04:57:50;;;;;;;2.33;0.95;;;6.20;62.70;;;;;;2090074;28;20009;-84
2021/04/25 04:58:51;;;;;;;3.70;1.17;;;6.20;62.70;;;;;;2099013;28;20064;-84
2021/04/25 04:59:52;;;;;;;4.18;1.10;;;6.20;62.60;;;;;;2080587;28;20021;-85
2021/04/25 05:00:52;;;;;;;2.38;0.90;;;6.10;62.60;;;;;;2078806;28;20038;-85
2021/04/25 05:01:53;;;;;;;3.65;0.90;;;6.10;62.50;;;;;;2079126;28;20033;-85
2021/04/25 05:02:53;;;;;;;4.40;0.93;;;6.10;62.50;;;;;;2081576;28;20120;-85
2021/04/25 05:03:54;;;;;;;4.25;1.15;;;6.10;62.50;;;;;;2090697;28;20056;-84
2021/04/25 05:04:55;;;;;;;3.13;1.00;;;6.10;62.50;;;;;;2092045;28;20029;-81
2021/04/25 05:05:55;;;;;;;1.83;0.80;;;6.10;62.50;;;;;;2086109;28;20025;-84
2021/04/25 05:06:56;;;;;;;4.20;1.13;;;6.10;62.50;;;;;;2084190;28;20093;-83
2021/04/25 05:07:57;;;;;;;3.03;1.02;;;6.10;62.50;;;;;;2075856;28;20034;-83
2021/04/25 05:08:57;;;;;;;1.95;0.73;;;6.10;62.40;;;;;;2070553;28;20026;-85
2021/04/25 05:09:58;;;;;;;3.65;0.90;;;6.20;63.00;;;;;;2081085;28;20033;-85
2021/04/25 05:10:58;;;;;;;4.88;0.85;;;6.10;62.30;;;;;;2080030;28;20052;-84
2021/04/25 05:11:59;;;;;;;2.58;0.82;;;6.20;62.30;;;;;;2072807;28;20373;-84
2021/04/25 05:13:00;;;;;;;3.25;0.85;;;6.20;62.30;;;;;;2065414;28;20476;-85
2021/04/25 05:14:01;;;;;;;2.35;0.75;;;6.20;62.30;;;;;;2073249;28;20042;-85
2021/04/25 05:15:02;;;;;;;3.63;0.85;;;6.20;62.20;;;;;;2073219;28;20034;-85
2021/04/25 05:16:03;;;;;;;4.65;1.00;;;6.20;62.20;;;;;;2065519;28;20061;-84
2021/04/25 05:17:04;;;;;;;3.63;1.10;;;6.20;62.10;;;;;;2064174;28;20099;-85
2021/04/25 05:18:04;;;;;;;2.42;1.00;;;6.20;62.10;;;;;;2072496;28;20050;-84
2021/04/25 05:19:05;;;;;;;3.38;0.90;;;6.20;62.10;;;;;;2068333;28;20081;-84
2021/04/25 05:20:06;;;;;;;3.92;0.90;;;6.20;62.10;;;;;;2075162;28;20544;-84
2021/04/25 05:21:07;;;;;;;2.53;1.00;;;6.20;62.10;;;;;;2077804;28;20540;-85
2021/04/25 05:22:07;;;;;;;4.18;1.73;;;6.20;62.10;;;;;;2082238;28;20160;-85